NWS Home NWS Lubbock West Texas Mesonet Three hour changes as of 1009 PM, Tue Dec 11, 2018

Latest   N   C   S   Daily Sum   3hrΔ   24hrΔ   Soil Data 
Site Map   24hr Precip   72hr Precip   Google Plot


Station Time of Last Temp Now Temp 3h ago Delta-T Dewpoint Now Dewpoint 3hr ago Delta-Td 3hr Press Change (mB)
Reese Center  10:05 PM 43.5 45.1 -1.6 39.9 40.8 -0.9 -0.6
Abernathy  10:05 PM 41.3 43.9 -2.6 37.8 39 -1.2 -0.7
Plainview  10:05 PM 44.9 46.3 -1.4 41 41.9 -0.9 0.3
Tahoka  10:05 PM 45.3 49 -3.7 41.2 42.6 -1.5 -0.1
Slaton  10:05 PM 44.6 48.4 -3.8 41.2 42.9 -1.7 -0.5
Levelland  10:05 PM 43.1 46.7 -3.7 38.6 39.8 -1.1 -0.4
Roaring Springs  10:05 PM 48.4 48.6 -0.2 43.8 43.8 0 -0.3
Floydada  10:05 PM 43.8 46.3 -2.5 40.8 41.1 -0.3 -0.1
Ralls  10:05 PM 43.6 45 -1.4 40 40.7 -0.6 -0.8
Brownfield  10:05 PM 43.3 48.4 -5.1 40.4 41.7 -1.3 -0.6
Muleshoe  10:05 PM 39.7 46.5 -6.9 34.2 38 -3.8 0.3
Morton  10:05 PM 44.5 46.9 -2.3 38.4 40.5 -2.2 -0.4
O'Donnell  10:05 PM 43.9 48.8 -4.8 39.2 41 -1.8 -0.1
Seagraves  10:05 PM 40.9 48.4 -7.5 39.1 41.7 -2.6 -0.4
Amherst  10:05 PM 42.3 45.9 -3.6 38.3 40.4 -2.1 0.1
Plains  10:05 PM 42.9 46.5 -3.6 42.2 43.2 -1 0
Lamesa  10:05 PM 43.6 48.7 -5.1 40.4 42.5 -2.1 -0.3
Hart  10:05 PM 38.1 44.7 -6.6 36.2 41.1 -4.9 0.2
Friona  10:05 PM 35.7 49.5 -13.8 27 29.5 -2.5 0.5
Dimmitt  10:05 PM 36.2 47.4 -11.2 30.8 34.7 -3.9 0.1
Tulia  10:05 PM 40.6 46.2 -5.6 37.4 40.3 -2.8 0.7
Silverton  10:05 PM 44.5 48.4 -3.9 39.4 40.8 -1.4 0.4
Post  10:05 PM 48.7 52.3 -3.5 41 41.8 -0.8 -0.4
Seminole  10:05 PM 43.8 49.4 -5.6 39.9 40.7 -0.8 -0.4
Gail  10:05 PM 47.4 50.9 -3.5 40.8 40.3 0.4 -0.5
White River Lake  10:05 PM 46.1 49.6 -3.5 41.5 42 -0.5 -0.6
Graham  10:05 PM 47.1 50.9 -3.8 40.7 42 -1.3 0.1
Sundown  10:05 PM 43.2 45.5 -2.4 39.9 40.1 -0.2 -0.2
Anton  10:05 PM 42.4 40.4 2 39.8 38.3 1.5 -0.4
Fluvanna  10:05 PM 45.6 49.3 -3.7 40.8 41.6 -0.8 -0.3
Spur  10:05 PM 48.6 51.9 -3.3 41.1 41.9 -0.8 -0.5
Northwest Lubbock  10:05 PM 46.4 49.4 -3 42 42.5 -0.5 -0.5
Guthrie  10:05 PM 49.5 51.1 -1.6 40.9 41.3 -0.4 -0.2
Clarendon  10:05 PM 40 44.7 -4.7 36.4 38.5 -2.1 0.5
Paducah  10:05 PM 46.3 48.5 -2.1 41.5 42.4 -1 0.2
Snyder  10:05 PM 47.1 50.8 -3.7 42.7 41.9 0.8 -0.3
Memphis  10:05 PM 41.4 49.2 -7.8 38.8 42.2 -3.4 0.4
Jayton  10:05 PM 50 54.2 -4.2 40.6 40.1 0.5 -0.6
Pampa  10:05 PM 37.8 42.9 -5.1 19 34.5 -15.5 0.7
Aspermont  10:05 PM 50.3 53.8 -3.5 42.9 41.2 1.6 -0.3
Hereford  10:05 PM 34.4 49.2 -14.8 24.7 27.4 -2.7 1.3
Goodlett  10:05 PM 44.1 49.4 -5.2 40 41.5 -1.5 -0.2
McLean  10:05 PM 43.5 45 -1.5 35.7 38.3 -2.5 0.5
Denver City  10:05 PM 42.6 45.1 -2.4 38.5 39.8 -1.2 -0.3
Lake Alan Henry  10:05 PM 49.5 52.8 -3.3 42.5 43 -0.5 -0.5
Wolfforth  10:05 PM 42.7 47.5 -4.8 40.1 42.3 -2.1 -0.4
Andrews  10:05 PM 45.3 49.1 -3.8 40.2 41.5 -1.3 -0.6
Turkey  10:05 PM 48.5 50.1 -1.6 42.2 42.6 -0.4 0.4
Childress  10:05 PM 45.2 51.9 -6.7 40.9 42.5 -1.6 0.3
Tatum  10:05 PM 40.1 44 -4 37.1 39.3 -2.2 -0.3
Northfield  10:05 PM 48.1 49.7 -1.6 42.1 41.5 0.6 -0.2
Dora  02:25 AM 31.5 34.4 -2.9 27.6 26.9 0.6 -0.8
Northwest San Angelo  10:05 PM 50 49.1 0.9 40.5 40.5 -0.1 -0.9
Saint Lawrence  10:05 PM 46.8 47.8 -1 42.9 42 0.9 -0.5
Haskell  10:05 PM 49.2 52.1 -2.9 42.6 42 0.7 -0.5
Wall  10:05 PM 49.8 49.9 -0.1 42.4 43 -0.6 -1.6
Seymour  10:05 PM 50.1 51.6 -1.4 43 41.9 1.2 -0.5
Knox City  10:05 PM 49.6 51.1 -1.5 43.6 43.3 0.3 -0.4
Guadalupe Mtns Park  10:05 PM 51.7 55.5 -3.8 35.2 34.5 0.7 0.3
Caprock Canyons   10:05 PM 46.5 51.9 -5.4 40.7 42.2 -1.5 0.8
Odell  10:05 PM 49.8 50.6 -0.8 42.6 42.5 0.1 -0.5
Coyanosa  10:05 PM 45.8 51.3 -5.5 44.7 45.8 -1.2 -0.2
Big Lake  10:05 PM 46.8 47.8 -1.1 42.9 42.6 0.3 -1
Junction  10:05 PM 40.8 46.9 -6 39.8 41 -1.3 -0.7
Hobbs  10:05 PM 43.1 45.8 -2.7 38.7 40.3 -1.6 -0.2
Canadian  10:05 PM 42.7 46.7 -4 17.1 26.6 -9.5 1.4
Palo Duro Canyon State Park Rim  10:05 PM 44.3 50.4 -6.1 18.8 36.4 -17.6 0.7
Bootleg  10:05 PM 36.6 43.3 -6.8 23.3 26 -2.6 0.8
Sterling City  10:05 PM 48.9 49.6 -0.7 42.5 40.7 1.8 -0.6
Mertzon  10:05 PM 48.8 50.2 -1.4 42 42.4 -0.4 -0.6
Persimmon Gap  10:05 PM 48 51.6 -3.7 43.1 42.5 0.6 0.1
Weinert  10:05 PM 50.6 52.5 -1.8 42.9 42.1 0.8 -0.6
Claude 12 Southwest  10:05 PM 39.5 52.1 -12.6 23.3 39.7 -16.4 0.6
Amarillo 7 South Southeast  10:05 PM 40.6 43.6 -3 18.3 30 -11.7 0.6
Umbarger  10:05 PM 41.1 50.4 -9.3 21.7 29.3 -7.6 1.1
Lomax  10:05 PM 47.7 49.8 -2.1 43 41.8 1.2 -0.7
Amarillo 9 North Northeast  10:05 PM 43.3 42.4 1 16.4 29.4 -13 1
Aiken  10:05 PM 42 44 -2 39.4 40.3 -0.9 0.2
Sweetwater  10:05 PM 48.1 49.7 -1.5 43.6 42.8 0.8 -0.2
Dozier  10:05 PM 42.9 46.4 -3.4 40.1 40.9 -0.8 0.6
Amarillo 15 North Northwest  10:05 PM 43 49.5 -6.4 18.1 28 -9.9 1
Menard  10:05 PM 46.1 48.2 -2.1 40.7 41.1 -0.4 -1.2
Tarzan  10:05 PM 45.1 48.3 -3.2 41.9 42.2 -0.2 -0.4
Goodnight  10:05 PM 39.7 45.6 -6 26.1 40.9 -14.8 0.4
Boys Ranch   10:05 PM 44.8 43.5 1.3 16.3 26.8 -10.5 1.2
Fort McKavett  10:05 PM 46.6 48.3 -1.7 41.1 41.8 -0.7 -1.3
Fort Chadbourne  10:05 PM 48.7 50.7 -2 43 43 -0 -0.5
Palo Duro Canyon State Park Floor  10:05 PM 48 51.6 -3.6 21.1 39.7 -18.5 0.8
Fort Lancaster  10:05 PM 48.8 49.9 -1.1 44.5 44.5 -0 -0.9
Dell City 1N  10:05 PM 42.7 46.2 -3.6 40.6 43 -2.4 -0.1
Clyde  10:05 PM 48.9 52.6 -3.7 41.4 41.8 -0.3 -0.2
Snyder SSW  10:05 PM 47 50.6 -3.6 42.3 41.6 0.7 -0.5
Panhandle  10:05 PM 42.1 38.5 3.6 17.5 30.8 -13.3 0.5
Vigo Park  10:05 PM 39.8 45.8 -6 38 41.2 -3.2 0.5
Welch  10:05 PM 42.7 50.1 -7.4 41.2 43.4 -2.3 -0.4
Throckmorton  10:05 PM 52.1 53.6 -1.5 42.9 41.4 1.5 0
Sierra Blanca  10:05 PM 49.1 49.4 -0.3 39.7 40.8 -1.1 0.2
Fort Lewis CO  10:05 PM 23.6 34.3 -10.7 13.4 20.3 -6.9 0.4
New Home  10:05 PM 42.4 48.2 -5.7 40.9 43.3 -2.4 -0.4
McCamey  10:05 PM 48.2 49.2 -1 43.7 42.6 1 -0.4
Stamford  10:05 PM 50.5 53.8 -3.3 44 43.5 0.5 0
Crowell  10:05 PM 49 49.4 -0.4 42.5 43.4 -0.8 -0.1
Stinnett  10:05 PM 39.7 47.8 -8 16.5 16.6 -0.1 0.7
Colorado City  10:05 PM 48.8 51.6 -2.8 42.9 41.2 1.7 -0.9
Happy  10:05 PM 37 47.1 -10 32.3 41.5 -9.2 0.8
Endee  10:05 PM 37.2 50.6 -13.4 24.1 27.4 -3.3 2.3
JA Ranch  10:05 PM 43.5 49.4 -5.9 39.7 42.2 -2.5 0.5
Adrian  10:05 PM 40.9 49.7 -8.8 15.2 26.8 -11.6 1.1
Lesley  10:05 PM 43.5 48.7 -5.2 40.7 43.2 -2.5 0.4
Earth  10:05 PM 43 49.4 -6.4 36.1 38.1 -2 -0.1
Van Horn  10:05 PM 49.6 51.4 -1.8 41.1 41.8 -0.6 0.3
Rotan  10:05 PM 49.4 52.5 -3.1 42.6 42.1 0.6 0
Fritch  10:05 PM 44.3 50.5 -6.2 15.9 23.2 -7.3 0.4
Estelline  10:05 PM 47.3 51.5 -4.2 42.2 43 -0.8 0.3
Crane  10:05 PM 49.6 50.7 -1.1 43.2 42 1.1 -0.6
Hackberry  10:05 PM 50.3 51.1 -0.8 42.3 43.1 -0.8 0.2
Romero 11 SSW  10:05 PM 37.4 47.2 -9.7 13.6 19.5 -5.9 1.5
Palo Duro Reservoir 1NW  10:05 PM 39.4 46.7 -7.2 16.4 14.8 1.6 0.6
Olton  10:05 PM 41.8 43.7 -1.9 38.4 39.5 -1.1 0.4

West Texas Mesonet Home   Site Map/Menu  NWS Lubbock Soil Data  Daily Summary Page  24hr Precip  72hr Precip  Google Plot